Time;durP1;ratioP1;P1;durP2;ratioP2;P2;SDS_P1;SDS_P2;PMS_P1;PMS_P2;Temp;Humidity;BMP_temperature;BMP_pressure;BME280_temperature;BME280_humidity;BME280_pressure;Samples;Min_cycle;Max_cycle;Signal;HPM_P1;HPM_P2
2021/10/08 00:02:11;;;;;;;6.37;4.60;;;;;;;0.38;70.62;102669.39;1695253;84;20972;-54
2021/10/08 00:04:38;;;;;;;18.12;5.03;;;;;;;0.27;70.82;102661.52;1695104;84;21007;-53
2021/10/08 00:07:04;;;;;;;12.88;4.08;;;;;;;0.15;71.15;102660.39;1695502;84;21134;-53
2021/10/08 00:09:31;;;;;;;16.35;4.72;;;;;;;0.07;71.41;102658.66;1695204;84;21012;-53
2021/10/08 00:11:57;;;;;;;12.53;4.60;;;;;;;-0.02;71.60;102662.80;1695159;84;20971;-52
2021/10/08 00:14:25;;;;;;;11.90;4.83;;;;;;;-0.11;71.93;102667.34;1695283;84;20933;-53
2021/10/08 00:16:51;;;;;;;12.40;5.37;;;;;;;-0.20;72.26;102663.84;1695433;84;21060;-53
2021/10/08 00:19:17;;;;;;;9.48;4.80;;;;;;;-0.26;73.31;102663.44;1699320;83;21612;-53
2021/10/08 00:21:44;;;;;;;10.68;4.87;;;;;;;-0.31;74.04;102668.64;1710509;83;21545;-53
2021/10/08 00:24:10;;;;;;;9.50;4.78;;;;;;;-0.40;74.31;102674.03;1700951;84;21585;-53
2021/10/08 00:26:40;;;;;;;12.20;4.90;;;;;;;-0.48;74.57;102671.41;1710552;83;22045;-53
2021/10/08 00:29:06;;;;;;;10.58;5.10;;;;;;;-0.53;74.80;102671.52;1700929;84;21031;-53
2021/10/08 00:31:33;;;;;;;20.68;5.42;;;;;;;-0.57;74.98;102668.31;1710337;82;21157;-53
2021/10/08 00:33:59;;;;;;;14.98;5.03;;;;;;;-0.63;75.40;102672.23;1700751;84;21042;-52
2021/10/08 00:36:26;;;;;;;12.45;4.97;;;;;;;-0.66;76.12;102672.01;1710263;83;21601;-53
2021/10/08 00:38:53;;;;;;;17.35;4.60;;;;;;;-0.69;76.82;102676.91;1674414;84;21526;-53
2021/10/08 00:41:22;;;;;;;10.05;4.70;;;;;;;-0.73;77.20;102680.05;1710401;83;21153;-51
2021/10/08 00:43:48;;;;;;;9.10;4.92;;;;;;;-0.79;77.46;102680.94;1700641;84;20964;-53
2021/10/08 00:46:15;;;;;;;8.98;4.80;;;;;;;-0.87;77.85;102681.33;1710392;83;20995;-53
2021/10/08 00:48:42;;;;;;;10.70;5.20;;;;;;;-0.90;78.02;102685.33;1700639;84;21210;-53
2021/10/08 00:51:08;;;;;;;12.55;4.58;;;;;;;-0.97;78.12;102681.50;1710546;83;20947;-52
2021/10/08 00:53:35;;;;;;;12.88;4.83;;;;;;;-1.02;78.12;102677.37;1700784;84;21014;-53
2021/10/08 00:56:01;;;;;;;12.10;5.33;;;;;;;-1.04;78.24;102680.21;1710229;83;21261;-53
2021/10/08 00:58:28;;;;;;;9.03;4.70;;;;;;;-1.06;78.06;102679.23;1674401;84;21026;-53
2021/10/08 01:00:54;;;;;;;7.22;4.37;;;;;;;-1.09;78.09;102672.69;1710641;83;21031;-53
2021/10/08 01:03:22;;;;;;;12.58;4.50;;;;;;;-1.09;78.14;102669.28;1700595;84;21534;-53
2021/10/08 01:05:48;;;;;;;11.45;4.60;;;;;;;-1.10;78.20;102673.87;1710355;83;21003;-53
2021/10/08 01:08:15;;;;;;;10.70;4.58;;;;;;;-1.09;78.36;102675.23;1700517;84;21232;-53
2021/10/08 01:10:43;;;;;;;9.30;4.90;;;;;;;-1.08;78.39;102669.77;1710343;83;21558;-53
2021/10/08 01:13:10;;;;;;;11.95;5.15;;;;;;;-1.11;78.47;102672.11;1700811;84;21231;-53
2021/10/08 01:15:39;;;;;;;19.62;5.80;;;;;;;-1.15;78.50;102673.56;1710254;82;21537;-53
2021/10/08 01:18:06;;;;;;;7.95;4.50;;;;;;;-1.16;78.60;102673.08;1699913;83;21960;-53
2021/10/08 01:20:32;;;;;;;9.80;5.10;;;;;;;-1.19;78.68;102677.55;1665297;84;21056;-53
2021/10/08 01:23:01;;;;;;;9.85;5.28;;;;;;;-1.24;78.98;102669.16;1693950;84;20988;-52
2021/10/08 01:25:32;;;;;;;10.82;4.78;;;;;;;-1.31;79.03;102676.77;1695049;83;20960;-53
2021/10/08 01:28:01;;;;;;;12.55;5.17;;;;;;;-1.37;79.23;102681.05;1695178;84;21071;-52
2021/10/08 01:30:29;;;;;;;12.28;4.67;;;;;;;-1.38;79.78;102682.23;1694673;84;21015;-53
2021/10/08 01:32:55;;;;;;;14.13;4.65;;;;;;;-1.39;80.34;102682.98;1695116;84;21132;-53
2021/10/08 01:35:22;;;;;;;14.50;4.80;;;;;;;-1.38;81.21;102684.36;1695200;84;20968;-53
2021/10/08 01:37:51;;;;;;;11.03;4.95;;;;;;;-1.40;81.83;102679.58;1695249;84;20956;-53
2021/10/08 01:40:18;;;;;;;10.28;4.62;;;;;;;-1.43;82.42;102688.64;1695461;84;20925;-53
2021/10/08 01:42:48;;;;;;;10.38;4.90;;;;;;;-1.42;83.20;102686.59;1695297;84;21004;-53
2021/10/08 01:45:15;;;;;;;10.82;4.97;;;;;;;-1.42;83.79;102686.59;1695222;84;21142;-53
2021/10/08 01:47:43;;;;;;;15.65;5.28;;;;;;;-1.47;84.00;102685.90;1695260;83;21578;-53
2021/10/08 01:50:10;;;;;;;16.95;4.47;;;;;;;-1.53;84.28;102681.69;1665588;84;20999;-53
2021/10/08 01:52:38;;;;;;;9.50;4.47;;;;;;;-1.59;84.45;102682.15;1695398;84;21047;-52
2021/10/08 01:55:06;;;;;;;16.93;4.87;;;;;;;-1.63;84.54;102681.45;1695179;84;20995;-53
2021/10/08 01:57:34;;;;;;;15.50;4.60;;;;;;;-1.67;84.65;102687.48;1665770;84;21161;-53
2021/10/08 02:00:00;;;;;;;13.28;5.03;;;;;;;-1.74;84.72;102683.27;1695393;84;20925;-53
2021/10/08 02:02:27;;;;;;;16.40;4.80;;;;;;;-1.79;84.90;102680.81;1695357;84;21050;-53
2021/10/08 02:04:53;;;;;;;12.65;4.80;;;;;;;-1.82;85.17;102689.86;1695394;84;21079;-52
2021/10/08 02:07:20;;;;;;;10.18;5.25;;;;;;;-1.83;85.60;102696.62;1695448;84;21039;-52
2021/10/08 02:09:46;;;;;;;8.85;5.22;;;;;;;-1.82;86.04;102686.95;1695532;84;21078;-52
2021/10/08 02:12:13;;;;;;;9.18;5.22;;;;;;;-1.80;86.44;102689.20;1695286;84;20963;-53
2021/10/08 02:14:39;;;;;;;8.70;5.22;;;;;;;-1.81;86.73;102689.09;1695345;84;20968;-53
2021/10/08 02:17:06;;;;;;;13.32;5.10;;;;;;;-1.82;87.01;102685.69;1695262;84;21036;-53
2021/10/08 02:19:34;;;;;;;9.55;5.00;;;;;;;-1.80;87.24;102689.20;1698693;83;20971;-52
2021/10/08 02:22:02;;;;;;;11.70;5.22;;;;;;;-1.77;87.48;102689.41;1710405;83;21199;-53
2021/10/08 02:24:30;;;;;;;9.48;4.83;;;;;;;-1.72;87.55;102683.75;1700525;84;21502;-53
2021/10/08 02:26:57;;;;;;;10.98;5.70;;;;;;;-1.68;87.63;102684.08;1710884;83;21489;-52
2021/10/08 02:29:25;;;;;;;10.82;5.42;;;;;;;-1.63;87.80;102686.94;1697750;84;21000;-53
2021/10/08 02:31:53;;;;;;;6.60;4.28;;;;;;;-1.58;87.82;102690.66;1710504;83;20983;-53
2021/10/08 02:34:20;;;;;;;19.50;5.12;;;;;;;-1.53;87.78;102690.58;1700768;84;21836;-53
2021/10/08 02:36:47;;;;;;;15.28;5.62;;;;;;;-1.50;87.58;102690.78;1710565;83;21580;-53
2021/10/08 02:39:14;;;;;;;19.10;5.55;;;;;;;-1.48;87.40;102693.03;1700944;84;21647;-53
2021/10/08 02:41:41;;;;;;;26.12;5.25;;;;;;;-1.47;87.35;102692.25;1710618;83;21517;-53
2021/10/08 02:44:08;;;;;;;14.93;5.80;;;;;;;-1.45;87.47;102694.50;1700657;84;21007;-53
2021/10/08 02:46:36;;;;;;;27.55;5.22;;;;;;;-1.37;87.91;102699.23;1685005;85;21706;-53
2021/10/08 02:49:03;;;;;;;44.33;6.47;;;;;;;-1.33;88.08;102699.52;1710444;83;20983;-53
2021/10/08 02:51:33;;;;;;;10.40;5.33;;;;;;;-1.28;88.26;102697.30;1700752;84;21283;-53
2021/10/08 02:54:01;;;;;;;12.95;5.00;;;;;;;-1.25;88.46;102701.31;1683902;83;21011;-53
2021/10/08 02:56:29;;;;;;;9.65;4.55;;;;;;;-1.23;88.57;102698.88;1701014;84;20971;-53
2021/10/08 02:58:55;;;;;;;12.40;5.28;;;;;;;-1.21;88.75;102698.19;1710247;83;21075;-53
2021/10/08 03:01:22;;;;;;;13.70;5.03;;;;;;;-1.18;88.91;102692.02;1700582;84;21498;-53
2021/10/08 03:03:50;;;;;;;16.77;6.67;;;;;;;-1.12;89.11;102698.31;1710192;83;21003;-53
2021/10/08 03:06:17;;;;;;;15.72;5.37;;;;;;;-1.06;89.22;102698.71;1701044;84;20940;-53
2021/10/08 03:08:45;;;;;;;14.03;5.10;;;;;;;-1.00;89.27;102696.97;1710343;83;21055;-53
2021/10/08 03:11:12;;;;;;;8.95;4.95;;;;;;;-0.95;89.18;102695.60;1700747;84;21151;-53
2021/10/08 03:13:40;;;;;;;13.35;4.58;;;;;;;-0.90;89.08;102697.64;1710482;83;20971;-53
2021/10/08 03:16:07;;;;;;;10.60;4.83;;;;;;;-0.82;88.90;102696.00;1700706;84;21356;-53
2021/10/08 03:18:33;;;;;;;9.30;5.00;;;;;;;-0.75;88.80;102693.95;1709611;83;20935;-53
2021/10/08 03:21:02;;;;;;;13.98;5.83;;;;;;;-0.67;88.57;102701.19;1695143;84;21039;-53
2021/10/08 03:23:30;;;;;;;10.10;4.83;;;;;;;-0.62;88.31;102699.44;1695194;84;21051;-53
2021/10/08 03:25:56;;;;;;;15.75;5.50;;;;;;;-0.56;88.01;102703.14;1695147;84;21000;-53
2021/10/08 03:28:24;;;;;;;16.35;5.45;;;;;;;-0.51;87.63;102708.13;1695447;84;21581;-53
2021/10/08 03:30:50;;;;;;;7.67;4.78;;;;;;;-0.48;87.31;102710.48;1695283;84;21573;-53
2021/10/08 03:33:17;;;;;;;11.28;5.67;;;;;;;-0.43;86.92;102708.20;1665326;84;21747;-53
2021/10/08 03:35:44;;;;;;;15.50;5.33;;;;;;;-0.40;86.61;102708.80;1665250;84;21860;-53
2021/10/08 03:38:18;;;;;;;18.37;5.25;;;;;;;-0.40;86.28;102703.72;1695297;84;21538;-52
2021/10/08 03:40:42;;;;;;;24.10;5.37;;;;;;;-0.41;86.03;102707.91;1694310;83;21029;-52
2021/10/08 03:43:11;;;;;;;13.88;5.47;;;;;;;-0.40;85.73;102700.77;1695304;84;21050;-52
2021/10/08 03:46:12;;;;;;;16.55;5.25;;;;;;;-0.38;85.45;102706.86;1695365;84;21540;-52
2021/10/08 03:51:03;;;;;;;58.02;6.75;;;;;;;-0.34;85.20;102720.27;1695218;83;21585;-52
2021/10/08 03:53:31;;;;;;;59.77;6.83;;;;;;;-0.32;85.17;102711.42;1695558;84;21548;-52
2021/10/08 03:55:58;;;;;;;126.15;8.63;;;;;;;-0.27;85.04;102715.55;1695351;84;21095;-52
2021/10/08 03:58:25;;;;;;;95.38;8.50;;;;;;;-0.22;84.77;102710.34;1695259;84;20964;-52
2021/10/08 04:00:52;;;;;;;62.62;6.90;;;;;;;-0.17;84.50;102714.05;1665819;84;21150;-53
2021/10/08 04:03:20;;;;;;;39.67;6.72;;;;;;;-0.12;84.23;102714.34;1695503;84;20969;-52
2021/10/08 04:05:47;;;;;;;20.77;5.97;;;;;;;-0.06;84.10;102710.52;1695156;83;21035;-52
2021/10/08 04:08:14;;;;;;;37.03;5.62;;;;;;;0.01;83.91;102710.50;1695237;83;21044;-52
2021/10/08 04:10:43;;;;;;;18.02;6.80;;;;;;;0.06;83.88;102717.13;1694861;84;21503;-52
2021/10/08 04:13:10;;;;;;;22.48;5.80;;;;;;;0.12;83.82;102723.48;1695330;84;21831;-52
2021/10/08 04:15:37;;;;;;;19.82;6.95;;;;;;;0.20;83.63;102715.42;1695256;84;20996;-52
2021/10/08 04:18:04;;;;;;;22.87;6.12;;;;;;;0.26;83.48;102720.91;1695474;84;20937;-52
2021/10/08 04:20:30;;;;;;;25.02;6.62;;;;;;;0.34;83.18;102728.61;1695210;84;20995;-52
2021/10/08 04:22:57;;;;;;;25.48;5.95;;;;;;;0.42;82.98;102719.75;1665310;84;21019;-53
2021/10/08 04:25:24;;;;;;;20.45;5.60;;;;;;;0.49;82.70;102712.08;1695263;84;21130;-53
2021/10/08 04:27:50;;;;;;;24.47;5.75;;;;;;;0.59;82.04;102715.16;1695148;84;20992;-52
2021/10/08 04:30:17;;;;;;;12.10;6.15;;;;;;;0.68;81.60;102718.27;1695198;84;20984;-52
2021/10/08 04:32:44;;;;;;;17.50;5.50;;;;;;;0.77;80.75;102720.48;1695408;84;20936;-52
2021/10/08 04:35:11;;;;;;;20.37;5.90;;;;;;;0.88;79.94;102721.08;1695213;84;21590;-52
2021/10/08 04:37:38;;;;;;;15.90;6.00;;;;;;;0.97;79.17;102721.22;1695082;83;21358;-53
2021/10/08 04:40:07;;;;;;;17.52;6.17;;;;;;;1.08;78.35;102727.34;1695197;84;21008;-52
2021/10/08 04:42:35;;;;;;;20.25;6.00;;;;;;;1.20;77.33;102724.61;1687379;84;20940;-53
2021/10/08 04:45:03;;;;;;;17.20;6.10;;;;;;;1.32;76.90;102726.98;1695081;83;20978;-52
2021/10/08 04:47:32;;;;;;;22.07;6.20;;;;;;;1.41;76.18;102724.55;1695185;84;20996;-53
2021/10/08 04:49:59;;;;;;;15.10;6.05;;;;;;;1.51;75.04;102728.46;1695275;84;21127;-53
2021/10/08 04:52:26;;;;;;;19.77;6.35;;;;;;;1.64;74.56;102728.77;1695196;84;20991;-53
2021/10/08 04:54:52;;;;;;;15.88;6.08;;;;;;;1.75;74.18;102731.02;1695128;84;21031;-53
2021/10/08 04:57:19;;;;;;;21.82;6.37;;;;;;;1.84;73.60;102739.17;1695226;84;21024;-52
2021/10/08 04:59:46;;;;;;;16.23;5.70;;;;;;;1.92;73.16;102728.98;1695226;84;20929;-53
2021/10/08 05:02:12;;;;;;;19.98;6.37;;;;;;;1.99;72.70;102729.79;1695319;84;21128;-53
2021/10/08 05:04:39;;;;;;;16.50;5.25;;;;;;;2.07;72.14;102735.70;1695181;84;20995;-53
2021/10/08 05:07:05;;;;;;;20.35;5.37;;;;;;;2.13;71.86;102742.02;1695160;84;20960;-53
2021/10/08 05:09:33;;;;;;;20.52;5.97;;;;;;;2.23;71.70;102741.22;1695107;84;21043;-53
2021/10/08 05:12:01;;;;;;;20.00;5.72;;;;;;;2.30;71.47;102742.91;1695191;84;20960;-53
2021/10/08 05:14:28;;;;;;;31.57;10.70;;;;;;;2.40;71.13;102742.09;1695180;84;21140;-53
2021/10/08 05:16:54;;;;;;;40.40;18.40;;;;;;;2.53;70.78;102738.11;1694997;84;20960;-53
2021/10/08 05:19:23;;;;;;;46.25;20.05;;;;;;;2.67;70.15;102738.81;1695152;84;21089;-53
2021/10/08 05:21:54;;;;;;;35.13;13.68;;;;;;;2.82;69.86;102740.40;1694713;84;21071;-53
2021/10/08 05:24:21;;;;;;;37.98;11.33;;;;;;;2.99;68.94;102742.52;1695166;84;21027;-53
2021/10/08 05:26:49;;;;;;;28.45;9.08;;;;;;;3.15;68.42;102744.14;1695138;84;21167;-53
2021/10/08 05:29:16;;;;;;;26.33;5.83;;;;;;;3.31;67.87;102748.33;1695103;84;21574;-53
2021/10/08 05:31:43;;;;;;;15.32;4.90;;;;;;;3.42;67.11;102747.17;1695123;84;21541;-54
2021/10/08 05:36:07;;;;;;;17.95;4.60;;;;;;;3.71;65.46;102736.53;1797671;79;22586;-54
2021/10/08 05:38:34;;;;;;;16.27;4.62;;;;;;;3.84;62.66;102749.11;1757320;80;21587;-53
2021/10/08 05:41:01;;;;;;;17.57;5.35;;;;;;;4.01;61.57;102747.31;1757400;81;21845;-53
2021/10/08 05:43:28;;;;;;;15.45;4.25;;;;;;;4.15;61.32;102745.37;1757283;81;20968;-53
2021/10/08 05:45:56;;;;;;;22.00;4.08;;;;;;;4.28;60.13;102745.52;1723992;83;20947;-53
2021/10/08 05:48:23;;;;;;;19.00;4.20;;;;;;;4.38;59.46;102727.57;1723898;83;20995;-53
2021/10/08 05:50:49;;;;;;;16.30;4.28;;;;;;;4.49;59.21;102747.27;1724130;83;20935;-53
2021/10/08 05:53:16;;;;;;;15.85;4.55;;;;;;;4.61;58.43;102746.93;1723906;83;21158;-53
2021/10/08 05:55:43;;;;;;;25.88;4.20;;;;;;;4.71;58.40;102749.06;1723850;83;20963;-54
2021/10/08 05:58:10;;;;;;;15.28;5.08;;;;;;;4.83;57.43;102746.14;1695063;83;21006;-53
2021/10/08 06:00:40;;;;;;;11.12;5.00;;;;;;;4.94;57.14;102750.86;1723790;83;21018;-53
2021/10/08 06:03:06;;;;;;;15.05;4.58;;;;;;;5.02;57.05;102745.20;1723855;83;20971;-52
2021/10/08 06:05:36;;;;;;;10.55;4.53;;;;;;;5.11;56.60;102746.42;1720760;83;21209;-51
2021/10/08 06:08:07;;;;;;;11.57;4.90;;;;;;;5.22;56.19;102743.00;1697827;84;21086;-52
2021/10/08 06:10:37;;;;;;;13.28;4.30;;;;;;;5.29;55.84;102745.86;1698030;84;20956;-53
2021/10/08 06:13:04;;;;;;;18.20;5.75;;;;;;;5.41;55.38;102749.33;1669517;84;21014;-53
2021/10/08 06:15:31;;;;;;;12.05;3.87;;;;;;;5.52;54.38;102750.17;1697637;83;20988;-54
2021/10/08 06:17:58;;;;;;;14.03;4.20;;;;;;;5.57;54.04;102743.52;1697786;84;21156;-53
2021/10/08 06:20:26;;;;;;;9.63;3.75;;;;;;;5.61;54.24;102746.27;1697734;84;21051;-53
2021/10/08 06:22:54;;;;;;;15.78;4.90;;;;;;;5.67;54.02;102744.33;1715793;83;20939;-53
2021/10/08 06:25:21;;;;;;;15.00;4.53;;;;;;;5.69;53.22;102743.11;1708667;84;21711;-53
2021/10/08 06:27:51;;;;;;;24.55;4.37;;;;;;;5.76;54.26;102742.52;1708638;84;21221;-53
2021/10/08 06:30:17;;;;;;;13.15;4.75;;;;;;;5.76;54.26;102742.52;1708274;84;21643;-53
2021/10/08 06:32:44;;;;;;;13.62;3.70;;;;;;;5.83;53.77;102736.82;1679892;84;20975;-53
2021/10/08 06:35:10;;;;;;;11.70;3.65;;;;;;;5.89;53.68;102745.15;1704812;83;20972;-53
2021/10/08 06:37:37;;;;;;;15.60;3.75;;;;;;;5.96;53.10;102746.27;1711207;83;22154;-53
2021/10/08 06:40:06;;;;;;;15.32;3.75;;;;;;;6.02;53.28;102734.95;1701264;84;20959;-54
2021/10/08 06:42:33;;;;;;;15.80;4.17;;;;;;;6.10;52.68;102730.09;1711102;83;21138;-54
2021/10/08 06:45:02;;;;;;;16.00;4.22;;;;;;;6.23;52.99;102727.16;1700167;84;21042;-54
2021/10/08 06:47:28;;;;;;;17.25;4.10;;;;;;;6.23;52.99;102727.16;1710292;83;21000;-54
2021/10/08 06:49:55;;;;;;;16.70;4.12;;;;;;;6.35;52.60;102726.72;1700762;84;21014;-54
2021/10/08 06:52:22;;;;;;;16.50;4.00;;;;;;;6.45;51.68;102717.63;1659327;85;21020;-54
2021/10/08 06:54:48;;;;;;;11.63;3.45;;;;;;;6.48;51.58;102726.73;1710462;83;21137;-53
2021/10/08 06:57:16;;;;;;;10.72;4.00;;;;;;;6.53;51.11;102714.91;1700929;84;21502;-53
2021/10/08 06:59:43;;;;;;;23.80;3.98;;;;;;;6.53;50.54;102711.05;1710543;83;21541;-53
2021/10/08 07:02:10;;;;;;;19.67;4.35;;;;;;;6.49;50.72;102710.48;1700868;84;21078;-53
2021/10/08 07:04:38;;;;;;;26.85;3.75;;;;;;;6.46;51.32;102711.66;1710549;83;21538;-54
2021/10/08 07:07:05;;;;;;;16.85;3.37;;;;;;;6.44;51.04;102709.02;1701010;84;20987;-54
2021/10/08 07:09:46;;;;;;;13.28;3.75;;;;;;;6.46;51.15;102702.23;1710006;83;21023;-53
2021/10/08 07:12:13;;;;;;;10.32;2.95;;;;;;;6.52;50.89;102689.99;1700794;84;20943;-54
2021/10/08 07:14:39;;;;;;;27.00;3.80;;;;;;;6.55;50.45;102708.11;1710511;83;20932;-53
2021/10/08 07:17:07;;;;;;;11.93;3.40;;;;;;;6.58;50.80;102700.48;1700874;84;21059;-53
2021/10/08 07:19:33;;;;;;;26.45;4.25;;;;;;;6.69;50.94;102706.00;1710305;83;21628;-53
2021/10/08 07:22:00;;;;;;;23.92;3.98;;;;;;;6.85;50.32;102705.23;1700743;84;21031;-54
2021/10/08 07:24:26;;;;;;;15.65;3.85;;;;;;;7.02;49.93;102701.92;1710432;83;20944;-54
2021/10/08 07:26:54;;;;;;;19.45;3.67;;;;;;;7.18;49.79;102698.13;1700884;84;21573;-54
2021/10/08 07:29:22;;;;;;;16.70;3.55;;;;;;;7.41;47.83;102682.51;1710630;83;20983;-52
2021/10/08 07:31:50;;;;;;;13.40;3.20;;;;;;;7.54;48.24;102691.05;1700847;84;21120;-53
2021/10/08 07:34:16;;;;;;;19.77;3.45;;;;;;;7.69;47.86;102690.63;1710719;82;20971;-53
2021/10/08 07:36:43;;;;;;;18.42;4.33;;;;;;;7.81;47.66;102691.41;1695307;83;20987;-53
2021/10/08 07:39:09;;;;;;;18.32;4.62;;;;;;;7.91;47.29;102690.86;1695373;84;21869;-53
2021/10/08 07:41:36;;;;;;;23.62;5.62;;;;;;;8.00;46.26;102690.64;1695438;84;21558;-53
2021/10/08 07:44:02;;;;;;;25.37;6.10;;;;;;;7.96;46.65;102690.11;1695214;84;21506;-53
2021/10/08 07:46:30;;;;;;;29.77;5.58;;;;;;;8.00;46.66;102688.06;1695156;84;21027;-52
2021/10/08 07:48:56;;;;;;;30.52;6.50;;;;;;;8.02;46.31;102690.27;1695284;84;21004;-54
2021/10/08 07:51:23;;;;;;;21.90;5.70;;;;;;;8.08;45.59;102685.27;1695431;83;21039;-53
2021/10/08 07:53:49;;;;;;;17.20;5.50;;;;;;;8.13;45.63;102684.12;1695338;84;21034;-54
2021/10/08 07:56:17;;;;;;;22.50;5.40;;;;;;;8.29;44.57;102659.20;1695273;84;21144;-53
2021/10/08 07:58:43;;;;;;;15.45;5.28;;;;;;;8.38;45.20;102693.81;1695215;83;21035;-53
2021/10/08 08:01:10;;;;;;;17.32;5.47;;;;;;;8.58;44.80;102691.77;1695367;84;21044;-54
2021/10/08 08:03:36;;;;;;;18.17;6.25;;;;;;;8.74;44.28;102686.61;1695385;84;21019;-54
2021/10/08 08:06:02;;;;;;;24.18;6.47;;;;;;;8.89;44.10;102683.52;1695357;84;21020;-54
2021/10/08 08:08:29;;;;;;;19.40;6.40;;;;;;;9.05;44.00;102673.98;1695308;84;21143;-54
2021/10/08 08:10:56;;;;;;;19.98;5.45;;;;;;;9.26;42.85;102682.22;1695189;84;20992;-54
2021/10/08 08:13:23;;;;;;;11.22;4.67;;;;;;;9.27;41.41;102676.21;1695324;84;21051;-53
2021/10/08 08:15:49;;;;;;;19.23;5.67;;;;;;;9.18;42.24;102681.60;1695553;84;21043;-54
2021/10/08 08:18:15;;;;;;;19.73;5.30;;;;;;;9.16;41.89;102678.55;1695532;83;21028;-53
2021/10/08 08:20:42;;;;;;;21.60;5.30;;;;;;;9.13;41.53;102683.22;1695118;84;21044;-54
2021/10/08 08:23:08;;;;;;;17.20;5.50;;;;;;;9.06;41.22;102689.09;1695455;84;21024;-54
2021/10/08 08:25:35;;;;;;;24.27;5.50;;;;;;;9.02;41.33;102688.13;1695388;84;21035;-54
2021/10/08 08:28:01;;;;;;;20.77;5.92;;;;;;;9.04;41.28;102677.84;1665117;84;21574;-53
2021/10/08 08:30:28;;;;;;;21.45;5.85;;;;;;;8.97;41.03;102679.80;1695431;84;22207;-54
2021/10/08 08:32:54;;;;;;;27.22;5.55;;;;;;;8.89;42.11;102679.65;1695426;84;21115;-54
2021/10/08 08:35:21;;;;;;;13.98;5.75;;;;;;;9.03;41.40;102680.83;1696800;83;20976;-53
2021/10/08 08:37:47;;;;;;;22.93;6.92;;;;;;;9.13;42.11;102681.06;1710265;83;21031;-54
2021/10/08 08:40:14;;;;;;;21.35;6.60;;;;;;;9.28;41.66;102674.94;1700732;84;20975;-54
2021/10/08 08:42:41;;;;;;;23.22;7.03;;;;;;;9.39;40.19;102670.45;1710605;83;21034;-54
2021/10/08 08:45:08;;;;;;;14.68;6.28;;;;;;;9.30;40.66;102671.11;1700750;84;21071;-54
2021/10/08 08:47:35;;;;;;;24.05;7.25;;;;;;;9.31;41.56;102678.88;1710716;83;21026;-54
2021/10/08 08:50:03;;;;;;;22.40;7.83;;;;;;;9.42;41.76;102676.97;1674493;84;21549;-54
2021/10/08 08:52:30;;;;;;;22.00;7.28;;;;;;;9.57;41.22;102664.79;1710347;83;21007;-53
2021/10/08 08:54:57;;;;;;;21.50;7.37;;;;;;;9.63;40.53;102669.67;1700825;84;21011;-53
2021/10/08 08:57:23;;;;;;;24.90;7.87;;;;;;;9.63;40.75;102664.91;1710773;83;21059;-52
2021/10/08 09:00:16;;;;;;;21.52;7.42;;;;;;;9.67;40.03;102660.25;1700803;84;21537;-53
2021/10/08 09:02:42;;;;;;;22.20;8.23;;;;;;;9.68;40.31;102655.96;1710703;83;20956;-54
2021/10/08 09:05:19;;;;;;;34.78;8.80;;;;;;;9.69;41.27;102647.36;1651986;84;21110;-54
2021/10/08 09:07:46;;;;;;;27.90;9.00;;;;;;;9.82;40.48;102660.12;1710274;83;22131;-53
2021/10/08 09:10:21;;;;;;;30.82;9.53;;;;;;;9.95;40.72;102653.03;1700720;84;21518;-53
2021/10/08 09:12:50;;;;;;;24.85;10.05;;;;;;;10.13;38.28;102652.94;1709885;83;21003;-54
2021/10/08 09:15:18;;;;;;;32.88;11.20;;;;;;;10.23;37.12;102660.45;1700590;84;21694;-54
2021/10/08 09:17:46;;;;;;;28.85;10.72;;;;;;;10.26;36.92;102658.80;1710709;83;20987;-54
2021/10/08 09:20:18;;;;;;;32.80;9.83;;;;;;;10.44;35.99;102654.80;1700897;84;21027;-53
2021/10/08 09:22:51;;;;;;;27.98;10.65;;;;;;;10.51;36.25;102657.97;1710747;83;21701;-54
2021/10/08 09:25:36;;;;;;;32.88;10.35;;;;;;;10.55;35.00;102654.58;1700699;84;21011;-54
2021/10/08 09:28:06;;;;;;;31.25;10.85;;;;;;;10.59;34.86;102661.55;1710648;83;20979;-52
2021/10/08 09:30:45;;;;;;;20.92;9.45;;;;;;;10.62;35.16;102659.45;1674836;84;21035;-52
2021/10/08 09:33:15;;;;;;;24.47;10.75;;;;;;;10.64;35.13;102656.02;1684276;83;20987;-53
2021/10/08 09:35:42;;;;;;;32.40;11.45;;;;;;;10.72;35.60;102655.27;1713569;83;21060;-53
2021/10/08 09:38:12;;;;;;;23.87;10.28;;;;;;;10.76;35.01;102655.34;1720937;83;20975;-53
2021/10/08 09:40:55;;;;;;;30.12;11.08;;;;;;;10.78;35.44;102655.38;1691917;83;20990;-53
2021/10/08 09:43:28;;;;;;;31.60;11.50;;;;;;;10.84;34.56;102634.75;1692531;83;20939;-53
2021/10/08 09:45:59;;;;;;;32.28;10.80;;;;;;;10.78;35.24;102641.98;1692273;84;21544;-53
2021/10/08 09:48:41;;;;;;;28.77;12.37;;;;;;;10.81;35.84;102645.47;1692055;84;21163;-53
2021/10/08 09:51:15;;;;;;;37.08;12.37;;;;;;;10.90;34.33;102634.83;1691686;84;21051;-54
2021/10/08 09:53:55;;;;;;;26.65;11.57;;;;;;;10.89;34.67;102643.89;1721105;83;20959;-54
2021/10/08 09:56:42;;;;;;;21.75;12.07;;;;;;;10.90;34.39;102629.65;1720862;83;21481;-53
2021/10/08 09:59:11;;;;;;;28.45;11.60;;;;;;;10.91;35.16;102635.28;1692231;84;21002;-54
2021/10/08 10:01:40;;;;;;;28.92;10.63;;;;;;;11.12;34.58;102633.00;1666035;84;20997;-54
2021/10/08 10:04:10;;;;;;;33.92;10.15;;;;;;;11.27;35.15;102638.81;1689127;84;20987;-53
2021/10/08 10:06:42;;;;;;;25.75;10.13;;;;;;;11.46;35.04;102631.69;1694243;83;21002;-53
2021/10/08 10:09:08;;;;;;;27.25;9.68;;;;;;;11.59;33.58;102629.27;1720905;83;21476;-54
2021/10/08 10:11:36;;;;;;;30.48;9.35;;;;;;;11.52;33.79;102626.16;1692037;84;20987;-54
2021/10/08 10:14:03;;;;;;;27.55;9.93;;;;;;;11.33;34.27;102630.66;1692163;84;21269;-54
2021/10/08 10:16:37;;;;;;;23.20;8.75;;;;;;;11.31;34.31;102618.11;1720889;83;20939;-53
2021/10/08 10:19:02;;;;;;;31.35;9.58;;;;;;;11.23;33.50;102628.81;1720486;83;21002;-54
2021/10/08 10:21:32;;;;;;;24.25;8.70;;;;;;;11.09;34.86;102629.92;1691986;84;21045;-54
2021/10/08 10:24:01;;;;;;;25.23;8.23;;;;;;;11.14;34.03;102622.22;1692354;84;21010;-54
2021/10/08 10:26:33;;;;;;;19.65;8.70;;;;;;;11.27;34.36;102619.37;1721093;83;21003;-54
2021/10/08 10:28:59;;;;;;;17.42;7.40;;;;;;;11.36;34.17;102618.18;1695036;83;21025;-54
2021/10/08 10:31:26;;;;;;;21.87;8.10;;;;;;;11.44;33.84;102607.91;1692028;84;20990;-54
2021/10/08 10:34:00;;;;;;;15.45;7.65;;;;;;;11.45;33.80;102624.77;1692381;84;20994;-54
2021/10/08 10:36:31;;;;;;;21.85;7.30;;;;;;;11.50;34.48;102622.23;1692081;84;20986;-54
2021/10/08 10:39:17;;;;;;;17.37;7.15;;;;;;;11.47;34.58;102626.95;1692082;83;21143;-54
2021/10/08 10:41:50;;;;;;;18.95;6.40;;;;;;;11.46;34.62;102613.54;1688401;84;21007;-54
2021/10/08 10:44:33;;;;;;;18.65;6.45;;;;;;;11.38;34.86;102613.88;1713119;83;20979;-54
2021/10/08 10:46:52;;;;;;;28.80;7.78;;;;;;;11.38;35.32;102613.88;1686548;83;21818;-54
2021/10/08 10:49:37;;;;;;;19.10;7.08;;;;;;;11.32;36.23;102625.03;1665651;84;20998;-54
2021/10/08 10:52:08;;;;;;;23.42;5.92;;;;;;;11.38;35.02;102618.21;1686740;84;21182;-54
2021/10/08 10:54:40;;;;;;;;;;;;;;;11.23;35.68;102613.67;1694753;84;20983;-54
2021/10/08 10:57:08;;;;;;;20.12;5.90;;;;;;;11.14;36.31;102619.63;1686584;85;20120;-53
2021/10/08 10:59:36;;;;;;;19.42;6.05;;;;;;;11.09;36.04;102611.78;1702729;84;20972;-54
2021/10/08 11:02:20;;;;;;;22.17;6.45;;;;;;;11.05;36.53;102616.48;1702484;84;21080;-54
2021/10/08 11:04:55;;;;;;;100.58;8.28;;;;;;;11.03;36.23;102611.70;1720775;83;21141;-53
2021/10/08 11:07:22;;;;;;;12.53;5.47;;;;;;;10.95;36.50;102614.59;1691911;84;21006;-53
2021/10/08 11:10:13;;;;;;;16.10;5.47;;;;;;;10.92;37.04;102603.33;1694435;83;20967;-54
2021/10/08 11:12:42;;;;;;;26.57;5.58;;;;;;;10.92;36.88;102621.91;1692017;84;20979;-53
2021/10/08 11:15:26;;;;;;;17.23;6.47;;;;;;;10.86;36.37;102595.89;1692336;84;21034;-53
2021/10/08 11:18:03;;;;;;;19.20;5.33;;;;;;;10.79;36.95;102597.55;1692182;84;21156;-53
2021/10/08 11:20:44;;;;;;;22.87;5.65;;;;;;;10.74;36.95;102605.23;1660729;85;21022;-53
2021/10/08 11:23:24;;;;;;;20.02;6.20;;;;;;;10.75;36.55;102610.01;1701198;84;21031;-53
2021/10/08 11:26:00;;;;;;;20.37;5.50;;;;;;;10.73;36.90;102609.08;1702854;84;21046;-53
2021/10/08 11:28:30;;;;;;;15.95;4.95;;;;;;;10.72;36.81;102601.75;1695445;84;21043;-53
2021/10/08 11:30:57;;;;;;;14.15;4.92;;;;;;;10.76;37.01;102599.65;1721122;83;21055;-53
2021/10/08 11:33:38;;;;;;;13.95;6.03;;;;;;;10.88;36.91;102601.99;1692154;84;20979;-53